Map

Track Data

SID SEASON NUMBER BASIN SUBBASIN NAME ISO_TIME NATURE LAT LON WMO_WIND WMO_PRES WMO_AGENCY TRACK_TYPE DIST2LAND LANDFALL IFLAG USA_AGENCY USA_ATCF_ID USA_LAT USA_LON USA_RECORD USA_STATUS USA_WIND USA_PRES USA_SSHS USA_R34_NE USA_R34_SE USA_R34_SW USA_R34_NW USA_R50_NE USA_R50_SE USA_R50_SW USA_R50_NW USA_R64_NE USA_R64_SE USA_R64_SW USA_R64_NW USA_POCI USA_ROCI USA_RMW USA_EYE TOKYO_LAT TOKYO_LON TOKYO_GRADE TOKYO_WIND TOKYO_PRES TOKYO_R50_DIR TOKYO_R50_LONG TOKYO_R50_SHORT TOKYO_R30_DIR TOKYO_R30_LONG TOKYO_R30_SHORT TOKYO_LAND CMA_LAT CMA_LON CMA_CAT CMA_WIND CMA_PRES HKO_LAT HKO_LON HKO_CAT HKO_WIND HKO_PRES NEWDELHI_LAT NEWDELHI_LON NEWDELHI_GRADE NEWDELHI_WIND NEWDELHI_PRES NEWDELHI_CI NEWDELHI_DP NEWDELHI_POCI REUNION_LAT REUNION_LON REUNION_TYPE REUNION_WIND REUNION_PRES REUNION_TNUM REUNION_CI REUNION_RMW REUNION_R34_NE REUNION_R34_SE REUNION_R34_SW REUNION_R34_NW REUNION_R50_NE REUNION_R50_SE REUNION_R50_SW REUNION_R50_NW REUNION_R64_NE REUNION_R64_SE REUNION_R64_SW REUNION_R64_NW BOM_LAT BOM_LON BOM_TYPE BOM_WIND BOM_PRES BOM_TNUM BOM_CI BOM_RMW BOM_R34_NE BOM_R34_SE BOM_R34_SW BOM_R34_NW BOM_R50_NE BOM_R50_SE BOM_R50_SW BOM_R50_NW BOM_R64_NE BOM_R64_SE BOM_R64_SW BOM_R64_NW BOM_ROCI BOM_POCI BOM_EYE BOM_POS_METHOD BOM_PRES_METHOD NADI_LAT NADI_LON NADI_CAT NADI_WIND NADI_PRES WELLINGTON_LAT WELLINGTON_LON WELLINGTON_WIND WELLINGTON_PRES DS824_LAT DS824_LON DS824_STAGE DS824_WIND DS824_PRES TD9636_LAT TD9636_LON TD9636_STAGE TD9636_WIND TD9636_PRES TD9635_LAT TD9635_LON TD9635_WIND TD9635_PRES TD9635_ROCI NEUMANN_LAT NEUMANN_LON NEUMANN_CLASS NEUMANN_WIND NEUMANN_PRES MLC_LAT MLC_LON MLC_CLASS MLC_WIND MLC_PRES USA_GUST BOM_GUST BOM_GUST_PER REUNION_GUST REUNION_GUST_PER USA_SEAHGT USA_SEARAD_NE USA_SEARAD_SE USA_SEARAD_SW USA_SEARAD_NW STORM_SPEED STORM_DIR
1996223N29158 1996 62 WP MM NOT_NAMED 1996-08-10 06:00:00 NR 29.0000 158.000 main 1765 1740 O_____________ jtwc_wp WP151996 29.0000 158.000 15 -1 7 344
1996223N29158 1996 62 WP MM NOT_NAMED 1996-08-10 09:00:00 NR 29.3525 157.883 main 1735 1711 P_____________ WP151996 29.3525 157.883 15 -1 7 346
1996223N29158 1996 62 WP MM NOT_NAMED 1996-08-10 12:00:00 NR 29.7000 157.800 main 1711 1696 O_____________ jtwc_wp WP151996 29.7000 157.800 15 -1 7 353
1996223N29158 1996 62 WP MM NOT_NAMED 1996-08-10 15:00:00 NR 30.0425 157.777 main 1696 1676 P_____________ WP151996 30.0425 157.777 15 -1 7 0
1996223N29158 1996 62 WP MM NOT_NAMED 1996-08-10 18:00:00 NR 30.4000 157.800 main 1676 1658 O_____________ jtwc_wp WP151996 30.4000 157.800 15 -1 8 4
1996223N29158 1996 62 WP MM NOT_NAMED 1996-08-10 21:00:00 NR 30.8225 157.835 main 1658 1649 P_____________ WP151996 30.8225 157.835 15 -1 8 6
1996223N29158 1996 62 WP MM NOT_NAMED 1996-08-11 00:00:00 NR 31.2000 157.900 main 1649 1641 O_____________ jtwc_wp WP151996 31.2000 157.900 15 -1 6 12
1996223N29158 1996 62 WP MM NOT_NAMED 1996-08-11 03:00:00 NR 31.4225 157.978 main 1650 1645 P_____________ WP151996 31.4225 157.978 15 -1 4 23
1996223N29158 1996 62 WP MM NOT_NAMED 1996-08-11 06:00:00 NR 31.6000 158.100 main 1650 1646 O_____________ jtwc_wp WP151996 31.6000 158.100 15 -1 5 31
1996223N29158 1996 62 WP MM NOT_NAMED 1996-08-11 09:00:00 NR 31.8575 158.285 main 1656 1656 P_____________ WP151996 31.8575 158.285 17 -1 6 34
1996223N29158 1996 62 WP MM NOT_NAMED 1996-08-11 12:00:00 NR 32.1000 158.500 main 1667 1667 O_____________ jtwc_wp WP151996 32.1000 158.500 20 -1 5 41
1996223N29158 1996 62 WP MM NOT_NAMED 1996-08-11 15:00:00 NR 32.2650 158.708 main 1669 1662 P_____________ WP151996 32.2650 158.708 22 -1 5 48
1996223N29158 1996 62 WP MM NOT_NAMED 1996-08-11 18:00:00 NR 32.4000 158.900 main 1666 1660 O_____________ jtwc_wp WP151996 32.4000 158.900 25 -1 4 45
1996223N29158 1996 62 WP MM NOT_NAMED 1996-08-11 21:00:00 NR 32.5575 159.058 main 1655 1649 P_____________ WP151996 32.5575 159.058 27 -1 4 40
1996223N29158 1996 62 WP MM NOT_NAMED 1996-08-12 00:00:00 NR 32.7000 159.200 main 1649 1643 O_____________ jtwc_wp WP151996 32.7000 159.200 30 -1 4 42
1996223N29158 1996 62 WP MM NOT_NAMED 1996-08-12 03:00:00 NR 32.8224 159.335 main 1643 1628 P_____________ WP151996 32.8224 159.335 30 -1 3 38
1996223N29158 1996 62 WP MM NOT_NAMED 1996-08-12 06:00:00 NR 32.9600 159.440 main 1628 1628 O__O__________ jtwc_wp WP151996 32.9000 159.500 30 -1 33.2000 159.200 TD 30 1000 3 57
1996223N29158 1996 62 WP MM NOT_NAMED 1996-08-12 09:00:00 NR 32.9751 159.618 main 1636 1636 P__P__________ WP151996 32.9376 159.757 30 -1 33.0500 159.340 TD 30 1000 3 102
1996223N29158 1996 62 WP MM NOT_NAMED 1996-08-12 12:00:00 NR 32.9000 159.786 main 1655 1655 O__O__________ jtwc_wp WP151996 32.9000 160.000 30 -1 32.9000 159.500 TD 30 1000 3 130
1996223N29158 1996 62 WP MM NOT_NAMED 1996-08-12 15:00:00 NR 32.7650 159.911 main 1669 1669 P__P__________ WP151996 32.7799 160.130 30 -1 32.7500 159.692 TD 30 1000 4 143
1996223N29158 1996 62 WP MM NOT_NAMED 1996-08-12 18:00:00 NR 32.6000 160.050 main 1698 1693 O__O__________ jtwc_wp WP151996 32.6000 160.200 30 -1 32.6000 159.900 TD 30 1000 4 146
1996223N29158 1996 62 WP MM NOT_NAMED 1996-08-12 21:00:00 NR 32.4287 160.175 main 1722 1722 P__P__________ WP151996 32.4075 160.250 30 -1 32.4500 160.100 TD 30 1000 4 149
1996223N29158 1996 62 WP MM NOT_NAMED 1996-08-13 00:00:00 NR 32.2500 160.300 main 1736 1736 O__O__________ jtwc_wp WP151996 32.2000 160.300 30 -1 32.3000 160.300 TD 30 1000 4 150
1996223N29158 1996 62 WP MM NOT_NAMED 1996-08-13 03:00:00 NR 32.0674 160.427 main 1760 1760 P__P__________ WP151996 31.9849 160.362 30 -1 32.1499 160.492 TD 30 1000 4 144
1996223N29158 1996 62 WP MM NOT_NAMED 1996-08-13 06:00:00 NR 31.9000 160.600 main 1789 1789 O__O__________ jtwc_wp WP151996 31.8000 160.500 30 -1 32.0000 160.700 TD 30 1000 5 129
1996223N29158 1996 62 WP MM NOT_NAMED 1996-08-13 09:00:00 NR 31.7676 160.860 main 1812 1812 P__P__________ WP151996 31.6851 160.777 30 -1 31.8500 160.942 TD 30 1000 5 118
1996223N29158 1996 62 WP MM NOT_NAMED 1996-08-13 12:00:00 NR 31.6500 161.150 main 1836 1831 O__O__________ jtwc_wp WP151996 31.6000 161.100 30 -1 31.7000 161.200 TD 30 1000 5 118
1996223N29158 1996 62 WP MM NOT_NAMED 1996-08-13 15:00:00 NR 31.5174 161.408 main 1864 1864 P__P__________ WP151996 31.4924 161.365 30 -1 31.5425 161.450 TD 30 1000 5 120
1996223N29158 1996 62 WP MM NOT_NAMED 1996-08-13 18:00:00 NR 31.4000 161.650 main 1888 1883 O__O__________ jtwc_wp WP151996 31.4000 161.600 30 -1 31.4000 161.700 TD 30 1000 5 118
1996223N29158 1996 62 WP MM NOT_NAMED 1996-08-13 21:00:00 NR 31.3024 161.879 main 1907 1907 P__P__________ WP151996 31.3349 161.807 30 -1 31.2700 161.950 TD 30 1000 4 111
1996223N29158 1996 62 WP MM NOT_NAMED 1996-08-14 00:00:00 NR 31.2500 162.100 main 1917 1917 O__O__________ jtwc_wp WP151996 31.3000 162.000 30 -1 31.2000 162.200 TD 30 1000 4 98
1996223N29158 1996 62 WP MM NOT_NAMED 1996-08-14 03:00:00 NR 31.2486 162.314 main 1936 1926 P__P__________ WP151996 31.2773 162.170 30 -1 31.2200 162.457 TD 30 1000 4 83
1996223N29158 1996 62 WP MM NOT_NAMED 1996-08-14 06:00:00 NR 31.3000 162.550 main 1941 1936 O__O__________ jtwc_wp WP151996 31.3000 162.400 30 -1 31.3000 162.700 TD 30 1000 5 73
1996223N29158 1996 62 WP MM NOT_NAMED 1996-08-14 09:00:00 NR 31.3851 162.842 main 1941 1941 P__P__________ WP151996 31.3777 162.785 30 -1 31.3924 162.900 TD 30 1000 5 69
1996223N29158 1996 62 WP MM NOT_NAMED 1996-08-14 12:00:00 NR 31.5000 163.150 main 1952 1947 O__O__________ jtwc_wp WP151996 31.5000 163.200 30 -1 31.5000 163.100 TD 30 1000 5 65
1996223N29158 1996 62 WP MM NOT_NAMED 1996-08-14 15:00:00 NR 31.6174 163.421 main 1953 1949 P__P__________ WP151996 31.6423 163.508 30 -1 31.5924 163.335 TD 30 1000 5 62
1996223N29158 1996 62 WP MM NOT_NAMED 1996-08-14 18:00:00 NR 31.7500 163.700 main 1950 1950 O__O__________ jtwc_wp WP151996 31.8000 163.800 30 -1 31.7000 163.600 TD 30 1000 6 61
1996223N29158 1996 62 WP MM NOT_NAMED 1996-08-14 21:00:00 NR 31.8962 164.010 main 1957 1953 P__P__________ WP151996 31.9500 164.143 30 -1 31.8424 163.878 TD 30 1000 6 62
1996223N29158 1996 62 WP MM NOT_NAMED 1996-08-15 00:00:00 NR 32.0571 164.371 main 1960 1960 O__O__________ jtwc_wp WP151996 32.1000 164.500 30 -1 32.0000 164.200 TD 30 1000 7 63
1996223N29158 1996 62 WP MM NOT_NAMED 1996-08-15 03:00:00 NR 32.2175 164.761 main 1972 1963 P__P__________ WP151996 32.2499 164.850 30 -1 32.1528 164.582 TD 30 1000 7 64
1996223N29158 1996 62 WP MM NOT_NAMED 1996-08-15 06:00:00 NR 32.3800 165.160 main 1975 1975 O__O__________ jtwc_wp WP151996 32.4000 165.200 30 -1 32.3000 165.000 TD 30 1000 7 65
1996223N29158 1996 62 WP MM NOT_NAMED 1996-08-15 09:00:00 NR 32.5350 165.558 main 1988 1979 P_____________ WP151996 32.5350 165.558 30 -1 TD 7 63
1996223N29158 1996 62 WP MM NOT_NAMED 1996-08-15 12:00:00 NR 32.7000 165.900 main 1987 1981 O_____________ jtwc_wp WP151996 32.7000 165.900 30 -1 7 54
1996223N29158 1996 62 WP MM NOT_NAMED 1996-08-15 15:00:00 NR 32.9349 166.208 main 1987 1975 P_____________ WP151996 32.9349 166.208 30 -1 7 45
1996223N29158 1996 62 WP MM NOT_NAMED 1996-08-15 18:00:00 NR 33.2000 166.500 main 1978 1973 O_____________ jtwc_wp WP151996 33.2000 166.500 30 -1 7 44
1996223N29158 1996 62 WP MM NOT_NAMED 1996-08-15 21:00:00 NR 33.4575 166.808 main 1970 1968 P_____________ WP151996 33.4575 166.808 30 -1 7 45
1996223N29158 1996 62 WP MM NOT_NAMED 1996-08-16 00:00:00 NR 33.7000 167.100 main 1971 1967 O_____________ jtwc_wp WP151996 33.7000 167.100 30 -1 6 45
1996223N29158 1996 62 WP MM NOT_NAMED 1996-08-16 03:00:00 NR 33.9149 167.350 main 1973 1963 P_____________ WP151996 33.9149 167.350 30 -1 6 46
1996223N29158 1996 62 WP MM NOT_NAMED 1996-08-16 06:00:00 NR 34.1000 167.600 main 1969 1967 O_____________ jtwc_wp WP151996 34.1000 167.600 30 -1 6 54
1996223N29158 1996 62 WP MM NOT_NAMED 1996-08-16 09:00:00 NR 34.2500 167.900 main 1971 1971 P_____________ WP151996 34.2500 167.900 27 -1 6 59
1996223N29158 1996 62 WP MM NOT_NAMED 1996-08-16 12:00:00 NR 34.4000 168.200 main 1982 1980 O_____________ jtwc_wp WP151996 34.4000 168.200 25 -1 6 56
1996223N29158 1996 62 WP MM NOT_NAMED 1996-08-16 15:00:00 NR 34.5624 168.465 main 1985 1982 P_____________ WP151996 34.5624 168.465 22 -1 6 46
1996223N29158 1996 62 WP MM NOT_NAMED 1996-08-16 18:00:00 NR 34.8000 168.700 main 1982 1972 O_____________ jtwc_wp WP151996 34.8000 168.700 20 -1 7 31
1996223N29158 1996 62 WP MM NOT_NAMED 1996-08-16 21:00:00 NR 35.1549 168.900 main 1964 1938 P_____________ WP151996 35.1549 168.900 20 -1 9 22
1996223N29158 1996 62 WP MM NOT_NAMED 1996-08-17 00:00:00 NR 35.6000 169.100 main 1938 1899 O_____________ jtwc_wp WP151996 35.6000 169.100 20 -1 10 21
1996223N29158 1996 62 WP MM NOT_NAMED 1996-08-17 03:00:00 NR 36.0902 169.337 main 1899 1865 P_____________ WP151996 36.0902 169.337 20 -1 11 22
1996223N29158 1996 62 WP MM NOT_NAMED 1996-08-17 06:00:00 NR 36.6000 169.600 main 1865 O_____________ jtwc_wp WP151996 36.6000 169.600 20 -1 11 23

Digital Typhoon Data and Search

About IBTrACS Database

This database is a web-friendly format of International Best Track Archive for Climate Stewardship (IBTrACS), a global best track data archive curated by NOAA dating back to 1842.

Updated: 2021-11-26